sensor_id;sensor_type;location;lat;lon;timestamp;pressure;altitude;pressure_sealevel;temperature;humidity
59435;BME280;45241;49.768;8.636;2023-07-09T00:00:29;100426.59;;;22.83;92.39
59435;BME280;45241;49.768;8.636;2023-07-09T00:02:54;100439.44;;;22.82;95.09
59435;BME280;45241;49.768;8.636;2023-07-09T00:05:20;100429.06;;;22.79;96.43
59435;BME280;45241;49.768;8.636;2023-07-09T00:07:45;100441.44;;;23.07;95.52
59435;BME280;45241;49.768;8.636;2023-07-09T00:10:19;100435.69;;;23.04;95.55
59435;BME280;45241;49.768;8.636;2023-07-09T00:12:45;100432.97;;;22.99;93.22
59435;BME280;45241;49.768;8.636;2023-07-09T00:15:12;100429.91;;;22.85;95.76
59435;BME280;45241;49.768;8.636;2023-07-09T00:17:39;100435.13;;;22.92;92.58
59435;BME280;45241;49.768;8.636;2023-07-09T00:20:08;100433.47;;;22.85;92.65
59435;BME280;45241;49.768;8.636;2023-07-09T00:22:36;100435.66;;;22.88;93.10
59435;BME280;45241;49.768;8.636;2023-07-09T00:25:01;100440.47;;;22.71;91.42
59435;BME280;45241;49.768;8.636;2023-07-09T00:27:28;100436.09;;;22.65;91.44
59435;BME280;45241;49.768;8.636;2023-07-09T00:29:55;100438.78;;;22.55;91.55
59435;BME280;45241;49.768;8.636;2023-07-09T00:32:21;100446.69;;;22.56;93.51
59435;BME280;45241;49.768;8.636;2023-07-09T00:34:47;100454.94;;;22.62;92.78
59435;BME280;45241;49.768;8.636;2023-07-09T00:37:18;100448.25;;;22.42;93.75
59435;BME280;45241;49.768;8.636;2023-07-09T00:39:45;100447.00;;;22.60;92.89
59435;BME280;45241;49.768;8.636;2023-07-09T00:42:16;100453.03;;;22.67;92.66
59435;BME280;45241;49.768;8.636;2023-07-09T00:44:44;100453.31;;;22.71;93.12
59435;BME280;45241;49.768;8.636;2023-07-09T00:50:10;100447.22;;;22.53;92.42
59435;BME280;45241;49.768;8.636;2023-07-09T00:52:43;100452.97;;;22.57;92.15
59435;BME280;45241;49.768;8.636;2023-07-09T00:55:16;100449.97;;;22.16;93.08
59435;BME280;45241;49.768;8.636;2023-07-09T00:57:46;100453.72;;;22.42;92.10
59435;BME280;45241;49.768;8.636;2023-07-09T01:00:22;100453.22;;;22.13;93.07
59435;BME280;45241;49.768;8.636;2023-07-09T01:02:48;100456.88;;;22.29;93.62
59435;BME280;45241;49.768;8.636;2023-07-09T01:05:15;100467.63;;;22.36;92.47
59435;BME280;45241;49.768;8.636;2023-07-09T01:07:42;100454.22;;;22.34;91.89
59435;BME280;45241;49.768;8.636;2023-07-09T01:10:15;100456.63;;;22.30;90.90
59435;BME280;45241;49.768;8.636;2023-07-09T01:12:41;100462.34;;;22.29;91.17
59435;BME280;45241;49.768;8.636;2023-07-09T01:15:07;100471.34;;;22.24;92.76
59435;BME280;45241;49.768;8.636;2023-07-09T01:17:33;100472.75;;;22.32;92.41
59435;BME280;45241;49.768;8.636;2023-07-09T01:19:58;100474.72;;;22.37;93.18
59435;BME280;45241;49.768;8.636;2023-07-09T01:22:24;100477.25;;;22.11;92.64
59435;BME280;45241;49.768;8.636;2023-07-09T01:25:03;100479.44;;;22.14;91.53
59435;BME280;45241;49.768;8.636;2023-07-09T01:29:59;100479.69;;;22.08;91.72
59435;BME280;45241;49.768;8.636;2023-07-09T01:32:26;100484.63;;;22.11;91.39
59435;BME280;45241;49.768;8.636;2023-07-09T01:34:58;100480.53;;;22.13;90.92
59435;BME280;45241;49.768;8.636;2023-07-09T01:37:30;100478.41;;;22.20;91.26
59435;BME280;45241;49.768;8.636;2023-07-09T01:39:55;100478.38;;;22.15;91.61
59435;BME280;45241;49.768;8.636;2023-07-09T01:42:23;100482.25;;;22.24;90.67
59435;BME280;45241;49.768;8.636;2023-07-09T01:44:50;100475.97;;;22.24;92.77
59435;BME280;45241;49.768;8.636;2023-07-09T01:47:17;100470.78;;;22.22;93.17
59435;BME280;45241;49.768;8.636;2023-07-09T01:49:43;100476.19;;;22.17;93.22
59435;BME280;45241;49.768;8.636;2023-07-09T01:52:12;100478.47;;;22.30;91.56
59435;BME280;45241;49.768;8.636;2023-07-09T01:54:38;100474.63;;;22.26;92.15
59435;BME280;45241;49.768;8.636;2023-07-09T01:57:18;100476.56;;;22.31;89.67
59435;BME280;45241;49.768;8.636;2023-07-09T01:59:52;100477.34;;;22.21;91.91
59435;BME280;45241;49.768;8.636;2023-07-09T02:02:18;100478.63;;;22.14;92.40
59435;BME280;45241;49.768;8.636;2023-07-09T02:04:48;100479.47;;;22.19;92.84
59435;BME280;45241;49.768;8.636;2023-07-09T02:07:14;100476.19;;;22.17;93.04
59435;BME280;45241;49.768;8.636;2023-07-09T02:09:40;100473.50;;;22.22;93.64
59435;BME280;45241;49.768;8.636;2023-07-09T02:12:06;100482.00;;;22.26;94.38
59435;BME280;45241;49.768;8.636;2023-07-09T02:14:32;100476.81;;;22.29;94.31
59435;BME280;45241;49.768;8.636;2023-07-09T02:16:57;100476.56;;;22.31;93.83
59435;BME280;45241;49.768;8.636;2023-07-09T02:19:22;100476.94;;;22.40;93.44
59435;BME280;45241;49.768;8.636;2023-07-09T02:21:48;100477.06;;;22.23;94.57
59435;BME280;45241;49.768;8.636;2023-07-09T02:24:13;100476.28;;;22.27;94.00
59435;BME280;45241;49.768;8.636;2023-07-09T02:26:38;100473.25;;;22.24;94.10
59435;BME280;45241;49.768;8.636;2023-07-09T02:29:04;100468.59;;;22.24;93.77
59435;BME280;45241;49.768;8.636;2023-07-09T02:31:29;100468.91;;;22.28;95.40
59435;BME280;45241;49.768;8.636;2023-07-09T02:33:56;100466.72;;;22.30;95.23
59435;BME280;45241;49.768;8.636;2023-07-09T02:36:21;100470.50;;;22.24;94.95
59435;BME280;45241;49.768;8.636;2023-07-09T02:38:47;100469.44;;;22.30;94.79
59435;BME280;45241;49.768;8.636;2023-07-09T02:41:12;100467.28;;;22.32;94.37
59435;BME280;45241;49.768;8.636;2023-07-09T02:43:37;100472.72;;;22.27;95.70
59435;BME280;45241;49.768;8.636;2023-07-09T02:46:02;100472.97;;;22.20;95.11
59435;BME280;45241;49.768;8.636;2023-07-09T02:48:28;100470.69;;;22.12;94.18
59435;BME280;45241;49.768;8.636;2023-07-09T02:50:53;100474.34;;;22.23;93.39
59435;BME280;45241;49.768;8.636;2023-07-09T02:53:18;100470.44;;;22.14;86.49
59435;BME280;45241;49.768;8.636;2023-07-09T02:55:44;100475.69;;;22.20;88.58
59435;BME280;45241;49.768;8.636;2023-07-09T02:58:09;100475.84;;;21.77;94.71
59435;BME280;45241;49.768;8.636;2023-07-09T03:00:34;100480.06;;;21.89;95.47
59435;BME280;45241;49.768;8.636;2023-07-09T03:02:59;100478.41;;;21.88;96.24
59435;BME280;45241;49.768;8.636;2023-07-09T03:05:25;100479.63;;;22.02;95.25
59435;BME280;45241;49.768;8.636;2023-07-09T03:07:50;100480.16;;;21.99;94.60
59435;BME280;45241;49.768;8.636;2023-07-09T03:10:16;100476.56;;;21.94;95.37
59435;BME280;45241;49.768;8.636;2023-07-09T03:12:41;100495.34;;;21.90;95.47
59435;BME280;45241;49.768;8.636;2023-07-09T03:15:07;100497.31;;;21.95;95.33
59435;BME280;45241;49.768;8.636;2023-07-09T03:17:32;100494.16;;;22.08;94.72
59435;BME280;45241;49.768;8.636;2023-07-09T03:19:57;100497.16;;;22.07;95.22
59435;BME280;45241;49.768;8.636;2023-07-09T03:22:22;100496.78;;;21.98;95.09
59435;BME280;45241;49.768;8.636;2023-07-09T03:24:48;100506.00;;;21.92;95.31
59435;BME280;45241;49.768;8.636;2023-07-09T03:27:13;100507.34;;;21.89;95.75
59435;BME280;45241;49.768;8.636;2023-07-09T03:29:38;100506.59;;;21.94;96.25
59435;BME280;45241;49.768;8.636;2023-07-09T03:32:04;100507.41;;;21.94;95.26
59435;BME280;45241;49.768;8.636;2023-07-09T03:34:29;100512.25;;;21.87;94.84
59435;BME280;45241;49.768;8.636;2023-07-09T03:36:55;100512.81;;;21.89;95.84
59435;BME280;45241;49.768;8.636;2023-07-09T03:39:20;100510.16;;;21.94;95.67
59435;BME280;45241;49.768;8.636;2023-07-09T03:41:45;100518.06;;;21.96;95.83
59435;BME280;45241;49.768;8.636;2023-07-09T03:44:10;100517.16;;;21.85;96.08
59435;BME280;45241;49.768;8.636;2023-07-09T03:46:36;100514.34;;;21.80;96.72
59435;BME280;45241;49.768;8.636;2023-07-09T03:49:01;100509.53;;;21.87;96.60
59435;BME280;45241;49.768;8.636;2023-07-09T03:51:26;100517.97;;;21.86;95.27
59435;BME280;45241;49.768;8.636;2023-07-09T03:53:52;100518.81;;;21.86;95.74
59435;BME280;45241;49.768;8.636;2023-07-09T03:56:17;100523.97;;;21.83;96.38
59435;BME280;45241;49.768;8.636;2023-07-09T03:58:43;100519.75;;;21.70;97.49
59435;BME280;45241;49.768;8.636;2023-07-09T04:01:08;100525.50;;;21.74;96.72
59435;BME280;45241;49.768;8.636;2023-07-09T04:03:33;100525.59;;;21.84;96.86
59435;BME280;45241;49.768;8.636;2023-07-09T04:05:59;100533.78;;;21.84;96.94
59435;BME280;45241;49.768;8.636;2023-07-09T04:08:24;100530.28;;;21.88;95.76
59435;BME280;45241;49.768;8.636;2023-07-09T04:10:53;100534.53;;;21.79;97.17
59435;BME280;45241;49.768;8.636;2023-07-09T04:13:18;100536.44;;;21.79;96.75
59435;BME280;45241;49.768;8.636;2023-07-09T04:15:44;100543.78;;;21.73;96.96
59435;BME280;45241;49.768;8.636;2023-07-09T04:18:09;100538.31;;;21.73;97.69
59435;BME280;45241;49.768;8.636;2023-07-09T04:20:34;100544.19;;;21.87;99.59
59435;BME280;45241;49.768;8.636;2023-07-09T04:23:00;100542.13;;;21.72;98.65
59435;BME280;45241;49.768;8.636;2023-07-09T04:25:25;100539.13;;;21.74;100.00
59435;BME280;45241;49.768;8.636;2023-07-09T04:27:50;100530.16;;;21.78;99.40
59435;BME280;45241;49.768;8.636;2023-07-09T04:30:16;100536.41;;;21.74;100.00
59435;BME280;45241;49.768;8.636;2023-07-09T04:32:45;100539.69;;;21.76;100.00
59435;BME280;45241;49.768;8.636;2023-07-09T04:35:12;100535.22;;;21.91;97.88
59435;BME280;45241;49.768;8.636;2023-07-09T04:37:39;100530.63;;;21.97;98.38
59435;BME280;45241;49.768;8.636;2023-07-09T04:40:07;100533.47;;;22.07;98.02
59435;BME280;45241;49.768;8.636;2023-07-09T04:42:36;100531.31;;;22.14;97.72
59435;BME280;45241;49.768;8.636;2023-07-09T04:45:01;100529.97;;;22.17;97.02
59435;BME280;45241;49.768;8.636;2023-07-09T04:47:27;100536.34;;;22.27;97.07
59435;BME280;45241;49.768;8.636;2023-07-09T04:49:52;100533.47;;;22.39;97.43
59435;BME280;45241;49.768;8.636;2023-07-09T04:52:17;100532.13;;;22.42;97.52
59435;BME280;45241;49.768;8.636;2023-07-09T04:54:42;100530.00;;;22.49;98.47
59435;BME280;45241;49.768;8.636;2023-07-09T04:57:11;100524.56;;;22.54;97.25
59435;BME280;45241;49.768;8.636;2023-07-09T04:59:37;100530.84;;;22.54;94.75
59435;BME280;45241;49.768;8.636;2023-07-09T05:02:03;100525.66;;;22.58;95.05
59435;BME280;45241;49.768;8.636;2023-07-09T05:04:29;100532.25;;;22.62;94.25
59435;BME280;45241;49.768;8.636;2023-07-09T05:06:55;100534.19;;;22.67;95.26
59435;BME280;45241;49.768;8.636;2023-07-09T05:09:21;100533.16;;;22.73;95.78
59435;BME280;45241;49.768;8.636;2023-07-09T05:11:48;100534.81;;;22.74;95.86
59435;BME280;45241;49.768;8.636;2023-07-09T05:14:14;100536.72;;;22.78;94.89
59435;BME280;45241;49.768;8.636;2023-07-09T05:16:40;100545.19;;;22.77;96.60
59435;BME280;45241;49.768;8.636;2023-07-09T05:19:07;100548.78;;;22.82;94.73
59435;BME280;45241;49.768;8.636;2023-07-09T05:21:33;100544.13;;;22.83;96.90
59435;BME280;45241;49.768;8.636;2023-07-09T05:23:59;100547.19;;;22.92;96.77
59435;BME280;45241;49.768;8.636;2023-07-09T05:26:24;100550.75;;;22.97;94.96
59435;BME280;45241;49.768;8.636;2023-07-09T05:28:50;100552.16;;;23.00;96.38
59435;BME280;45241;49.768;8.636;2023-07-09T05:31:15;100553.88;;;23.11;96.17
59435;BME280;45241;49.768;8.636;2023-07-09T05:33:40;100554.47;;;23.18;95.36
59435;BME280;45241;49.768;8.636;2023-07-09T05:36:06;100553.41;;;23.24;94.66
59435;BME280;45241;49.768;8.636;2023-07-09T05:38:32;100549.59;;;23.35;92.11
59435;BME280;45241;49.768;8.636;2023-07-09T05:41:02;100546.91;;;23.40;89.45
59435;BME280;45241;49.768;8.636;2023-07-09T05:43:28;100540.38;;;23.52;87.10
59435;BME280;45241;49.768;8.636;2023-07-09T05:45:53;100544.19;;;23.56;87.17
59435;BME280;45241;49.768;8.636;2023-07-09T05:48:18;100550.78;;;23.55;86.02
59435;BME280;45241;49.768;8.636;2023-07-09T05:50:44;100540.94;;;23.64;89.03
59435;BME280;45241;49.768;8.636;2023-07-09T05:53:09;100541.22;;;23.72;85.83
59435;BME280;45241;49.768;8.636;2023-07-09T05:55:34;100547.00;;;23.76;80.92
59435;BME280;45241;49.768;8.636;2023-07-09T05:58:00;100553.56;;;23.85;80.57
59435;BME280;45241;49.768;8.636;2023-07-09T06:00:25;100551.91;;;23.84;79.79
59435;BME280;45241;49.768;8.636;2023-07-09T06:02:50;100548.41;;;23.94;80.24
59435;BME280;45241;49.768;8.636;2023-07-09T06:05:16;100547.31;;;24.00;80.13
59435;BME280;45241;49.768;8.636;2023-07-09T06:07:41;100555.81;;;24.14;80.19
59435;BME280;45241;49.768;8.636;2023-07-09T06:10:08;100553.66;;;24.16;79.12
59435;BME280;45241;49.768;8.636;2023-07-09T06:12:34;100549.25;;;24.20;80.87
59435;BME280;45241;49.768;8.636;2023-07-09T06:14:59;100554.19;;;24.28;79.63
59435;BME280;45241;49.768;8.636;2023-07-09T06:17:25;100554.19;;;24.28;81.19
59435;BME280;45241;49.768;8.636;2023-07-09T06:19:50;100555.56;;;24.30;78.20
59435;BME280;45241;49.768;8.636;2023-07-09T06:22:15;100542.09;;;24.49;78.96
59435;BME280;45241;49.768;8.636;2023-07-09T06:24:41;100553.34;;;24.58;78.52
59435;BME280;45241;49.768;8.636;2023-07-09T06:27:06;100551.16;;;24.55;78.20
59435;BME280;45241;49.768;8.636;2023-07-09T06:29:31;100554.16;;;24.58;77.05
59435;BME280;45241;49.768;8.636;2023-07-09T06:31:57;100555.00;;;24.69;75.13
59435;BME280;45241;49.768;8.636;2023-07-09T06:34:22;100559.34;;;24.85;74.83
59435;BME280;45241;49.768;8.636;2023-07-09T06:36:47;100559.59;;;24.89;77.68
59435;BME280;45241;49.768;8.636;2023-07-09T06:39:13;100562.34;;;24.94;77.36
59435;BME280;45241;49.768;8.636;2023-07-09T06:41:38;100566.19;;;24.98;77.11
59435;BME280;45241;49.768;8.636;2023-07-09T06:44:08;100559.56;;;25.04;78.20
59435;BME280;45241;49.768;8.636;2023-07-09T06:46:34;100563.09;;;25.15;77.77
59435;BME280;45241;49.768;8.636;2023-07-09T06:49:00;100559.53;;;25.19;76.49
59435;BME280;45241;49.768;8.636;2023-07-09T06:51:26;100566.94;;;25.14;76.47
59435;BME280;45241;49.768;8.636;2023-07-09T06:53:51;100565.53;;;25.27;76.15
59435;BME280;45241;49.768;8.636;2023-07-09T06:56:17;100571.81;;;25.32;75.37
59435;BME280;45241;49.768;8.636;2023-07-09T06:58:42;100571.81;;;25.32;75.32
59435;BME280;45241;49.768;8.636;2023-07-09T07:01:08;100572.06;;;25.41;76.05
59435;BME280;45241;49.768;8.636;2023-07-09T07:03:36;100574.44;;;25.58;75.45
59435;BME280;45241;49.768;8.636;2023-07-09T07:06:02;100576.38;;;25.62;75.08
59435;BME280;45241;49.768;8.636;2023-07-09T07:08:27;100575.22;;;25.73;75.58
59435;BME280;45241;49.768;8.636;2023-07-09T07:10:55;100575.72;;;25.80;73.19
59435;BME280;45241;49.768;8.636;2023-07-09T07:13:30;100570.09;;;25.96;74.81
59435;BME280;45241;49.768;8.636;2023-07-09T07:15:55;100560.88;;;25.81;73.00
59435;BME280;45241;49.768;8.636;2023-07-09T07:18:21;100562.50;;;25.88;72.37
59435;BME280;45241;49.768;8.636;2023-07-09T07:20:46;100556.72;;;25.89;72.19
59435;BME280;45241;49.768;8.636;2023-07-09T07:23:11;100559.69;;;25.93;72.97
59435;BME280;45241;49.768;8.636;2023-07-09T07:25:37;100550.88;;;25.96;72.60
59435;BME280;45241;49.768;8.636;2023-07-09T07:28:02;100561.84;;;26.01;73.15
59435;BME280;45241;49.768;8.636;2023-07-09T07:30:28;100556.78;;;26.18;72.19
59435;BME280;45241;49.768;8.636;2023-07-09T07:32:53;100553.69;;;26.30;72.00
59435;BME280;45241;49.768;8.636;2023-07-09T07:35:19;100550.88;;;26.35;72.11
59435;BME280;45241;49.768;8.636;2023-07-09T07:37:44;100548.34;;;26.44;69.85
59435;BME280;45241;49.768;8.636;2023-07-09T07:40:10;100554.94;;;26.43;69.98
59435;BME280;45241;49.768;8.636;2023-07-09T07:42:36;100545.03;;;26.71;71.34
59435;BME280;45241;49.768;8.636;2023-07-09T07:45:02;100558.47;;;26.77;70.47
59435;BME280;45241;49.768;8.636;2023-07-09T07:47:28;100557.09;;;26.80;70.59
59435;BME280;45241;49.768;8.636;2023-07-09T07:49:54;100563.06;;;26.87;70.23
59435;BME280;45241;49.768;8.636;2023-07-09T07:52:19;100554.91;;;27.01;69.40
59435;BME280;45241;49.768;8.636;2023-07-09T07:54:45;100548.47;;;27.10;68.73
59435;BME280;45241;49.768;8.636;2023-07-09T07:57:10;100549.69;;;27.23;69.16
59435;BME280;45241;49.768;8.636;2023-07-09T07:59:37;100540.03;;;27.25;67.49
59435;BME280;45241;49.768;8.636;2023-07-09T08:02:03;100540.59;;;27.27;66.96
59435;BME280;45241;49.768;8.636;2023-07-09T08:04:29;100543.91;;;27.48;67.73
59435;BME280;45241;49.768;8.636;2023-07-09T08:06:54;100539.69;;;27.56;66.42
59435;BME280;45241;49.768;8.636;2023-07-09T08:09:19;100538.03;;;27.55;66.10
59435;BME280;45241;49.768;8.636;2023-07-09T08:11:45;100544.00;;;27.81;66.51
59435;BME280;45241;49.768;8.636;2023-07-09T08:14:11;100539.53;;;27.85;66.58
59435;BME280;45241;49.768;8.636;2023-07-09T08:16:36;100543.81;;;28.10;65.16
59435;BME280;45241;49.768;8.636;2023-07-09T08:19:02;100548.31;;;28.38;63.50
59435;BME280;45241;49.768;8.636;2023-07-09T08:21:27;100538.91;;;28.26;63.14
59435;BME280;45241;49.768;8.636;2023-07-09T08:23:52;100538.75;;;28.50;63.59
59435;BME280;45241;49.768;8.636;2023-07-09T08:26:18;100542.34;;;28.50;61.33
59435;BME280;45241;49.768;8.636;2023-07-09T08:28:43;100540.31;;;28.69;61.38
59435;BME280;45241;49.768;8.636;2023-07-09T08:31:09;100535.97;;;28.96;62.44
59435;BME280;45241;49.768;8.636;2023-07-09T08:33:34;100536.19;;;28.99;61.35
59435;BME280;45241;49.768;8.636;2023-07-09T08:36:00;100534.06;;;29.10;61.27
59435;BME280;45241;49.768;8.636;2023-07-09T08:38:25;100525.84;;;29.05;59.84
59435;BME280;45241;49.768;8.636;2023-07-09T08:41:01;100521.13;;;29.19;60.61
59435;BME280;45241;49.768;8.636;2023-07-09T08:46:26;100519.59;;;29.27;58.97
59435;BME280;45241;49.768;8.636;2023-07-09T08:48:55;100526.09;;;29.58;58.17
59435;BME280;45241;49.768;8.636;2023-07-09T08:51:29;100523.69;;;29.79;58.15
59435;BME280;45241;49.768;8.636;2023-07-09T08:53:59;100520.69;;;29.89;56.14
59435;BME280;45241;49.768;8.636;2023-07-09T08:56:26;100527.72;;;29.96;57.47
59435;BME280;45241;49.768;8.636;2023-07-09T08:58:55;100526.88;;;30.31;58.10
59435;BME280;45241;49.768;8.636;2023-07-09T09:01:23;100525.47;;;30.42;56.94
59435;BME280;45241;49.768;8.636;2023-07-09T09:03:52;100523.63;;;30.29;54.96
59435;BME280;45241;49.768;8.636;2023-07-09T09:06:31;100518.09;;;30.29;54.37
59435;BME280;45241;49.768;8.636;2023-07-09T09:09:08;100522.75;;;30.51;54.66
59435;BME280;45241;49.768;8.636;2023-07-09T09:11:50;100525.66;;;30.46;53.66
59435;BME280;45241;49.768;8.636;2023-07-09T09:16:53;100519.00;;;30.78;53.34
59435;BME280;45241;49.768;8.636;2023-07-09T09:19:27;100516.97;;;30.92;53.87
59435;BME280;45241;49.768;8.636;2023-07-09T09:22:02;100504.91;;;30.97;54.00
59435;BME280;45241;49.768;8.636;2023-07-09T09:24:49;100512.50;;;31.31;53.57
59435;BME280;45241;49.768;8.636;2023-07-09T09:27:18;100513.81;;;31.42;53.39
59435;BME280;45241;49.768;8.636;2023-07-09T09:29:43;100511.09;;;31.59;52.19
59435;BME280;45241;49.768;8.636;2023-07-09T09:32:37;100513.03;;;31.50;50.94
59435;BME280;45241;49.768;8.636;2023-07-09T09:35:16;100510.91;;;31.56;50.55
59435;BME280;45241;49.768;8.636;2023-07-09T09:37:51;100510.59;;;31.66;51.53
59435;BME280;45241;49.768;8.636;2023-07-09T09:40:19;100500.16;;;31.54;50.32
59435;BME280;45241;49.768;8.636;2023-07-09T09:42:49;100505.09;;;31.75;50.73
59435;BME280;45241;49.768;8.636;2023-07-09T09:45:17;100508.97;;;31.91;50.19
59435;BME280;45241;49.768;8.636;2023-07-09T09:47:44;100516.81;;;31.89;47.64
59435;BME280;45241;49.768;8.636;2023-07-09T09:50:16;100523.47;;;32.31;47.91
59435;BME280;45241;49.768;8.636;2023-07-09T09:52:43;100527.13;;;32.61;47.03
59435;BME280;45241;49.768;8.636;2023-07-09T09:55:17;100530.97;;;32.22;45.89
59435;BME280;45241;49.768;8.636;2023-07-09T09:57:51;100529.63;;;32.45;45.88
59435;BME280;45241;49.768;8.636;2023-07-09T10:00:18;100521.78;;;32.56;47.09
59435;BME280;45241;49.768;8.636;2023-07-09T10:02:46;100518.72;;;32.49;45.90
59435;BME280;45241;49.768;8.636;2023-07-09T10:05:13;100521.59;;;32.61;45.67
59435;BME280;45241;49.768;8.636;2023-07-09T10:07:59;100519.47;;;32.67;46.11
59435;BME280;45241;49.768;8.636;2023-07-09T10:10:30;100511.25;;;32.88;45.62
59435;BME280;45241;49.768;8.636;2023-07-09T10:20:42;100496.25;;;33.09;43.30
59435;BME280;45241;49.768;8.636;2023-07-09T10:23:30;100481.75;;;33.04;42.60
59435;BME280;45241;49.768;8.636;2023-07-09T10:31:50;100476.88;;;33.93;41.19
59435;BME280;45241;49.768;8.636;2023-07-09T10:39:46;100472.50;;;33.83;40.70
59435;BME280;45241;49.768;8.636;2023-07-09T10:42:35;100462.03;;;34.01;41.56
59435;BME280;45241;49.768;8.636;2023-07-09T10:45:22;100460.53;;;34.04;40.13
59435;BME280;45241;49.768;8.636;2023-07-09T10:47:55;100456.16;;;34.15;39.35
59435;BME280;45241;49.768;8.636;2023-07-09T10:50:36;100457.72;;;34.37;40.58
59435;BME280;45241;49.768;8.636;2023-07-09T10:53:12;100453.66;;;34.34;38.26
59435;BME280;45241;49.768;8.636;2023-07-09T10:55:49;100460.22;;;34.50;38.14
59435;BME280;45241;49.768;8.636;2023-07-09T10:58:25;100450.13;;;34.70;38.84
59435;BME280;45241;49.768;8.636;2023-07-09T11:00:52;100444.56;;;34.46;38.65
59435;BME280;45241;49.768;8.636;2023-07-09T11:03:22;100445.47;;;34.87;39.61
59435;BME280;45241;49.768;8.636;2023-07-09T11:05:50;100438.66;;;34.60;38.54
59435;BME280;45241;49.768;8.636;2023-07-09T11:08:23;100445.25;;;34.79;39.11
59435;BME280;45241;49.768;8.636;2023-07-09T11:10:58;100444.44;;;34.91;38.39
59435;BME280;45241;49.768;8.636;2023-07-09T11:15:56;100435.16;;;34.75;38.46
59435;BME280;45241;49.768;8.636;2023-07-09T11:18:26;100433.84;;;35.21;39.07
59435;BME280;45241;49.768;8.636;2023-07-09T11:20:59;100434.56;;;35.58;37.90
59435;BME280;45241;49.768;8.636;2023-07-09T11:23:26;100428.94;;;35.30;38.74
59435;BME280;45241;49.768;8.636;2023-07-09T11:28:51;100425.28;;;36.26;38.99
59435;BME280;45241;49.768;8.636;2023-07-09T11:31:39;100415.31;;;35.53;37.25
59435;BME280;45241;49.768;8.636;2023-07-09T11:36:59;100417.59;;;35.23;37.92
59435;BME280;45241;49.768;8.636;2023-07-09T11:39:31;100415.81;;;35.31;38.23
59435;BME280;45241;49.768;8.636;2023-07-09T11:42:29;100408.06;;;35.64;38.49
59435;BME280;45241;49.768;8.636;2023-07-09T11:45:03;100412.88;;;35.80;38.50
59435;BME280;45241;49.768;8.636;2023-07-09T11:47:36;100411.75;;;35.96;38.89
59435;BME280;45241;49.768;8.636;2023-07-09T11:50:06;100408.44;;;36.22;37.40
59435;BME280;45241;49.768;8.636;2023-07-09T11:57:53;100402.84;;;36.38;37.83
59435;BME280;45241;49.768;8.636;2023-07-09T12:00:18;100410.59;;;36.61;37.36
59435;BME280;45241;49.768;8.636;2023-07-09T12:02:43;100404.59;;;37.09;37.70
59435;BME280;45241;49.768;8.636;2023-07-09T12:05:09;100401.22;;;37.20;36.67
59435;BME280;45241;49.768;8.636;2023-07-09T12:07:35;100405.53;;;36.82;36.51
59435;BME280;45241;49.768;8.636;2023-07-09T12:10:03;100404.66;;;36.62;36.78
59435;BME280;45241;49.768;8.636;2023-07-09T12:12:41;100403.97;;;36.65;36.32
59435;BME280;45241;49.768;8.636;2023-07-09T12:15:19;100391.50;;;36.78;37.30
59435;BME280;45241;49.768;8.636;2023-07-09T12:17:53;100395.97;;;36.99;36.91
59435;BME280;45241;49.768;8.636;2023-07-09T12:20:18;100388.50;;;37.22;36.73
59435;BME280;45241;49.768;8.636;2023-07-09T12:22:44;100376.03;;;37.00;35.32
59435;BME280;45241;49.768;8.636;2023-07-09T12:25:19;100377.03;;;36.92;34.26
59435;BME280;45241;49.768;8.636;2023-07-09T12:27:45;100362.72;;;37.13;34.86
59435;BME280;45241;49.768;8.636;2023-07-09T12:30:11;100360.09;;;37.39;34.58
59435;BME280;45241;49.768;8.636;2023-07-09T12:32:43;100365.53;;;37.32;34.24
59435;BME280;45241;49.768;8.636;2023-07-09T12:35:12;100355.75;;;37.23;34.85
59435;BME280;45241;49.768;8.636;2023-07-09T12:37:38;100351.25;;;37.37;34.88
59435;BME280;45241;49.768;8.636;2023-07-09T12:40:04;100355.09;;;37.10;33.88
59435;BME280;45241;49.768;8.636;2023-07-09T12:42:36;100342.50;;;37.39;34.00
59435;BME280;45241;49.768;8.636;2023-07-09T12:45:02;100342.63;;;37.65;33.83
59435;BME280;45241;49.768;8.636;2023-07-09T12:47:28;100337.28;;;37.37;33.98
59435;BME280;45241;49.768;8.636;2023-07-09T12:50:01;100331.88;;;37.67;34.77
59435;BME280;45241;49.768;8.636;2023-07-09T12:52:27;100325.63;;;37.74;34.04
59435;BME280;45241;49.768;8.636;2023-07-09T12:54:56;100322.25;;;37.65;34.35
59435;BME280;45241;49.768;8.636;2023-07-09T12:57:22;100323.31;;;37.80;34.54
59435;BME280;45241;49.768;8.636;2023-07-09T12:59:48;100313.38;;;38.05;34.36
59435;BME280;45241;49.768;8.636;2023-07-09T13:02:19;100315.72;;;37.57;34.16
59435;BME280;45241;49.768;8.636;2023-07-09T13:04:46;100309.03;;;37.85;33.46
59435;BME280;45241;49.768;8.636;2023-07-09T13:09:51;100319.31;;;37.81;34.24
59435;BME280;45241;49.768;8.636;2023-07-09T13:12:16;100302.16;;;37.82;34.25
59435;BME280;45241;49.768;8.636;2023-07-09T13:14:42;100303.00;;;38.32;35.08
59435;BME280;45241;49.768;8.636;2023-07-09T13:17:09;100285.66;;;38.76;33.12
59435;BME280;45241;49.768;8.636;2023-07-09T13:19:35;100296.78;;;37.93;33.27
59435;BME280;45241;49.768;8.636;2023-07-09T13:22:00;100297.81;;;38.08;33.55
59435;BME280;45241;49.768;8.636;2023-07-09T13:24:29;100297.03;;;37.84;33.57
59435;BME280;45241;49.768;8.636;2023-07-09T13:26:55;100294.78;;;38.16;33.03
59435;BME280;45241;49.768;8.636;2023-07-09T13:29:23;100293.75;;;38.28;33.33
59435;BME280;45241;49.768;8.636;2023-07-09T13:31:49;100289.41;;;38.57;32.85
59435;BME280;45241;49.768;8.636;2023-07-09T13:34:26;100276.75;;;38.67;32.94
59435;BME280;45241;49.768;8.636;2023-07-09T13:36:53;100287.97;;;38.40;32.58
59435;BME280;45241;49.768;8.636;2023-07-09T13:39:19;100292.34;;;38.68;32.31